sensor_id;sensor_type;location;lat;lon;timestamp;temperature;humidity
6174;DHT22;3120;48.796;9.796;2023-03-30T00:01:41;9.20;99.90
6174;DHT22;3120;48.796;9.796;2023-03-30T00:04:06;9.20;99.90
6174;DHT22;3120;48.796;9.796;2023-03-30T00:06:35;9.20;99.90
6174;DHT22;3120;48.796;9.796;2023-03-30T00:09:03;9.20;99.90
6174;DHT22;3120;48.796;9.796;2023-03-30T00:11:33;9.20;99.90
6174;DHT22;3120;48.796;9.796;2023-03-30T00:13:59;9.10;99.90
6174;DHT22;3120;48.796;9.796;2023-03-30T00:16:25;10.50;99.90
6174;DHT22;3120;48.796;9.796;2023-03-30T00:18:51;9.10;99.90
6174;DHT22;3120;48.796;9.796;2023-03-30T00:21:17;9.20;99.90
6174;DHT22;3120;48.796;9.796;2023-03-30T00:28:40;9.20;99.90
6174;DHT22;3120;48.796;9.796;2023-03-30T00:31:06;9.30;99.90
6174;DHT22;3120;48.796;9.796;2023-03-30T00:33:32;9.30;99.90
6174;DHT22;3120;48.796;9.796;2023-03-30T00:36:16;9.30;99.90
6174;DHT22;3120;48.796;9.796;2023-03-30T00:38:42;9.10;99.90
6174;DHT22;3120;48.796;9.796;2023-03-30T00:41:08;9.10;99.90
6174;DHT22;3120;48.796;9.796;2023-03-30T00:43:33;9.50;99.90
6174;DHT22;3120;48.796;9.796;2023-03-30T00:45:59;9.10;99.90
6174;DHT22;3120;48.796;9.796;2023-03-30T00:48:28;9.10;99.90
6174;DHT22;3120;48.796;9.796;2023-03-30T00:50:59;9.10;99.90
6174;DHT22;3120;48.796;9.796;2023-03-30T00:53:30;9.20;99.90
6174;DHT22;3120;48.796;9.796;2023-03-30T00:55:58;10.20;99.90
6174;DHT22;3120;48.796;9.796;2023-03-30T00:58:26;9.20;99.90
6174;DHT22;3120;48.796;9.796;2023-03-30T01:00:52;9.20;99.90
6174;DHT22;3120;48.796;9.796;2023-03-30T01:03:23;9.20;99.90
6174;DHT22;3120;48.796;9.796;2023-03-30T01:09:04;9.20;99.90
6174;DHT22;3120;48.796;9.796;2023-03-30T01:11:31;9.20;99.90
6174;DHT22;3120;48.796;9.796;2023-03-30T01:13:59;9.10;99.90
6174;DHT22;3120;48.796;9.796;2023-03-30T01:31:01;9.30;99.90
6174;DHT22;3120;48.796;9.796;2023-03-30T01:36:50;9.30;99.90
6174;DHT22;3120;48.796;9.796;2023-03-30T01:47:55;9.40;99.90
6174;DHT22;3120;48.796;9.796;2023-03-30T01:59:06;9.50;99.90
6174;DHT22;3120;48.796;9.796;2023-03-30T02:01:35;9.50;99.90
6174;DHT22;3120;48.796;9.796;2023-03-30T02:04:31;9.60;99.90
6174;DHT22;3120;48.796;9.796;2023-03-30T02:10:07;9.60;99.90
6174;DHT22;3120;48.796;9.796;2023-03-30T02:12:40;10.10;99.90
6174;DHT22;3120;48.796;9.796;2023-03-30T02:15:09;10.00;99.90
6174;DHT22;3120;48.796;9.796;2023-03-30T02:17:40;9.70;99.90
6174;DHT22;3120;48.796;9.796;2023-03-30T02:20:07;9.30;99.90
6174;DHT22;3120;48.796;9.796;2023-03-30T02:22:43;9.70;99.90
6174;DHT22;3120;48.796;9.796;2023-03-30T02:25:09;9.60;99.90
6174;DHT22;3120;48.796;9.796;2023-03-30T02:27:36;10.70;99.90
6174;DHT22;3120;48.796;9.796;2023-03-30T02:30:09;9.60;99.90
6174;DHT22;3120;48.796;9.796;2023-03-30T02:35:49;9.50;99.90
6174;DHT22;3120;48.796;9.796;2023-03-30T02:38:46;9.60;99.90
6174;DHT22;3120;48.796;9.796;2023-03-30T02:47:59;9.50;99.90
6174;DHT22;3120;48.796;9.796;2023-03-30T02:50:33;9.40;99.90
6174;DHT22;3120;48.796;9.796;2023-03-30T02:53:12;10.00;99.90
6174;DHT22;3120;48.796;9.796;2023-03-30T02:56:03;10.60;99.90
6174;DHT22;3120;48.796;9.796;2023-03-30T02:58:54;9.00;99.90
6174;DHT22;3120;48.796;9.796;2023-03-30T03:01:36;9.60;99.90
6174;DHT22;3120;48.796;9.796;2023-03-30T03:04:05;9.60;99.90
6174;DHT22;3120;48.796;9.796;2023-03-30T03:06:31;9.90;99.90
6174;DHT22;3120;48.796;9.796;2023-03-30T03:08:58;10.50;99.90
6174;DHT22;3120;48.796;9.796;2023-03-30T03:11:24;9.70;99.90
6174;DHT22;3120;48.796;9.796;2023-03-30T03:13:50;9.70;99.90
6174;DHT22;3120;48.796;9.796;2023-03-30T03:16:17;9.80;99.90
6174;DHT22;3120;48.796;9.796;2023-03-30T03:18:42;10.10;99.90
6174;DHT22;3120;48.796;9.796;2023-03-30T03:21:10;9.70;99.90
6174;DHT22;3120;48.796;9.796;2023-03-30T03:23:36;10.60;99.90
6174;DHT22;3120;48.796;9.796;2023-03-30T03:26:03;9.80;99.90
6174;DHT22;3120;48.796;9.796;2023-03-30T03:28:53;10.70;99.90
6174;DHT22;3120;48.796;9.796;2023-03-30T03:31:19;9.80;99.90
6174;DHT22;3120;48.796;9.796;2023-03-30T03:33:45;9.80;99.90
6174;DHT22;3120;48.796;9.796;2023-03-30T03:36:10;9.80;99.90
6174;DHT22;3120;48.796;9.796;2023-03-30T03:38:36;9.80;99.90
6174;DHT22;3120;48.796;9.796;2023-03-30T03:41:02;9.80;99.90
6174;DHT22;3120;48.796;9.796;2023-03-30T03:43:28;9.80;99.90
6174;DHT22;3120;48.796;9.796;2023-03-30T03:45:54;10.50;99.90
6174;DHT22;3120;48.796;9.796;2023-03-30T03:48:22;10.40;99.90
6174;DHT22;3120;48.796;9.796;2023-03-30T03:50:53;10.00;99.90
6174;DHT22;3120;48.796;9.796;2023-03-30T03:53:19;10.00;99.90
6174;DHT22;3120;48.796;9.796;2023-03-30T03:55:46;10.60;99.90
6174;DHT22;3120;48.796;9.796;2023-03-30T03:58:18;10.00;99.90
6174;DHT22;3120;48.796;9.796;2023-03-30T04:00:45;10.00;99.90
6174;DHT22;3120;48.796;9.796;2023-03-30T04:03:11;10.00;99.90
6174;DHT22;3120;48.796;9.796;2023-03-30T04:05:37;10.00;99.90
6174;DHT22;3120;48.796;9.796;2023-03-30T04:08:36;10.00;99.90
6174;DHT22;3120;48.796;9.796;2023-03-30T04:11:07;10.00;99.90
6174;DHT22;3120;48.796;9.796;2023-03-30T04:13:39;10.00;99.90
6174;DHT22;3120;48.796;9.796;2023-03-30T04:16:05;9.90;99.90
6174;DHT22;3120;48.796;9.796;2023-03-30T04:18:32;10.10;99.90
6174;DHT22;3120;48.796;9.796;2023-03-30T04:21:03;10.20;99.90
6174;DHT22;3120;48.796;9.796;2023-03-30T04:23:33;10.10;99.90
6174;DHT22;3120;48.796;9.796;2023-03-30T04:26:00;10.10;99.90
6174;DHT22;3120;48.796;9.796;2023-03-30T04:28:33;10.10;99.90
6174;DHT22;3120;48.796;9.796;2023-03-30T04:31:00;10.10;99.90
6174;DHT22;3120;48.796;9.796;2023-03-30T04:33:27;10.50;99.90
6174;DHT22;3120;48.796;9.796;2023-03-30T04:35:53;10.10;99.90
6174;DHT22;3120;48.796;9.796;2023-03-30T04:38:18;10.10;99.90
6174;DHT22;3120;48.796;9.796;2023-03-30T04:40:47;10.90;99.90
6174;DHT22;3120;48.796;9.796;2023-03-30T04:43:12;10.10;99.90
6174;DHT22;3120;48.796;9.796;2023-03-30T04:45:38;10.10;99.90
6174;DHT22;3120;48.796;9.796;2023-03-30T04:48:04;10.10;99.90
6174;DHT22;3120;48.796;9.796;2023-03-30T04:50:30;10.20;99.90
6174;DHT22;3120;48.796;9.796;2023-03-30T04:52:55;10.20;99.90
6174;DHT22;3120;48.796;9.796;2023-03-30T04:55:21;10.20;99.90
6174;DHT22;3120;48.796;9.796;2023-03-30T04:57:48;10.10;99.90
6174;DHT22;3120;48.796;9.796;2023-03-30T05:00:14;10.10;99.90
6174;DHT22;3120;48.796;9.796;2023-03-30T05:02:40;10.20;99.90
6174;DHT22;3120;48.796;9.796;2023-03-30T05:05:06;10.20;99.90
6174;DHT22;3120;48.796;9.796;2023-03-30T05:07:31;10.20;99.90
6174;DHT22;3120;48.796;9.796;2023-03-30T05:09:57;10.20;99.90
6174;DHT22;3120;48.796;9.796;2023-03-30T05:12:23;11.40;99.90
6174;DHT22;3120;48.796;9.796;2023-03-30T05:14:48;10.20;99.90
6174;DHT22;3120;48.796;9.796;2023-03-30T05:17:14;10.90;99.90
6174;DHT22;3120;48.796;9.796;2023-03-30T05:19:40;10.30;99.90
6174;DHT22;3120;48.796;9.796;2023-03-30T05:22:05;10.20;99.90
6174;DHT22;3120;48.796;9.796;2023-03-30T05:24:31;10.70;99.90
6174;DHT22;3120;48.796;9.796;2023-03-30T05:26:57;10.30;99.90
6174;DHT22;3120;48.796;9.796;2023-03-30T05:29:22;10.30;99.90
6174;DHT22;3120;48.796;9.796;2023-03-30T05:31:48;10.50;99.90
6174;DHT22;3120;48.796;9.796;2023-03-30T05:34:13;10.30;99.90
6174;DHT22;3120;48.796;9.796;2023-03-30T05:36:39;10.30;99.90
6174;DHT22;3120;48.796;9.796;2023-03-30T05:39:05;10.40;99.90
6174;DHT22;3120;48.796;9.796;2023-03-30T05:41:31;10.40;99.90
6174;DHT22;3120;48.796;9.796;2023-03-30T05:43:57;11.10;99.90
6174;DHT22;3120;48.796;9.796;2023-03-30T05:46:23;10.40;99.90
6174;DHT22;3120;48.796;9.796;2023-03-30T05:48:48;10.50;99.90
6174;DHT22;3120;48.796;9.796;2023-03-30T05:51:14;11.00;99.90
6174;DHT22;3120;48.796;9.796;2023-03-30T05:53:40;10.50;99.90
6174;DHT22;3120;48.796;9.796;2023-03-30T05:56:06;10.50;99.90
6174;DHT22;3120;48.796;9.796;2023-03-30T05:58:32;10.50;99.90
6174;DHT22;3120;48.796;9.796;2023-03-30T06:00:58;10.60;99.90
6174;DHT22;3120;48.796;9.796;2023-03-30T06:03:24;10.60;99.90
6174;DHT22;3120;48.796;9.796;2023-03-30T06:05:52;10.60;99.90
6174;DHT22;3120;48.796;9.796;2023-03-30T06:08:18;10.60;99.90
6174;DHT22;3120;48.796;9.796;2023-03-30T06:10:51;10.30;99.90
6174;DHT22;3120;48.796;9.796;2023-03-30T06:13:17;10.70;99.90
6174;DHT22;3120;48.796;9.796;2023-03-30T06:15:46;11.20;99.90
6174;DHT22;3120;48.796;9.796;2023-03-30T06:18:12;11.20;99.90
6174;DHT22;3120;48.796;9.796;2023-03-30T06:20:38;10.70;99.90
6174;DHT22;3120;48.796;9.796;2023-03-30T06:23:27;10.80;99.90
6174;DHT22;3120;48.796;9.796;2023-03-30T06:25:53;10.80;99.90
6174;DHT22;3120;48.796;9.796;2023-03-30T06:28:21;11.30;99.90
6174;DHT22;3120;48.796;9.796;2023-03-30T06:30:47;10.80;99.90
6174;DHT22;3120;48.796;9.796;2023-03-30T06:33:37;11.70;99.90
6174;DHT22;3120;48.796;9.796;2023-03-30T06:36:03;10.90;99.90
6174;DHT22;3120;48.796;9.796;2023-03-30T06:38:29;10.90;99.90
6174;DHT22;3120;48.796;9.796;2023-03-30T06:43:47;11.00;99.90
6174;DHT22;3120;48.796;9.796;2023-03-30T06:46:13;11.10;99.90
6174;DHT22;3120;48.796;9.796;2023-03-30T06:51:41;11.20;99.90
6174;DHT22;3120;48.796;9.796;2023-03-30T06:54:24;11.40;99.90
6174;DHT22;3120;48.796;9.796;2023-03-30T06:56:50;11.30;99.90
6174;DHT22;3120;48.796;9.796;2023-03-30T06:59:17;11.30;99.90
6174;DHT22;3120;48.796;9.796;2023-03-30T07:01:43;11.30;99.90
6174;DHT22;3120;48.796;9.796;2023-03-30T07:04:20;11.40;99.90
6174;DHT22;3120;48.796;9.796;2023-03-30T07:06:46;11.40;99.90
6174;DHT22;3120;48.796;9.796;2023-03-30T07:09:11;12.00;99.90
6174;DHT22;3120;48.796;9.796;2023-03-30T07:11:38;11.40;99.90
6174;DHT22;3120;48.796;9.796;2023-03-30T07:14:03;12.00;99.90
6174;DHT22;3120;48.796;9.796;2023-03-30T07:16:29;12.90;99.90
6174;DHT22;3120;48.796;9.796;2023-03-30T07:18:56;11.70;99.90
6174;DHT22;3120;48.796;9.796;2023-03-30T07:21:21;12.90;99.90
6174;DHT22;3120;48.796;9.796;2023-03-30T07:23:47;12.00;99.90
6174;DHT22;3120;48.796;9.796;2023-03-30T07:26:13;12.90;99.90
6174;DHT22;3120;48.796;9.796;2023-03-30T07:28:38;13.20;99.90
6174;DHT22;3120;48.796;9.796;2023-03-30T07:31:09;12.40;99.90
6174;DHT22;3120;48.796;9.796;2023-03-30T07:33:35;12.50;99.90
6174;DHT22;3120;48.796;9.796;2023-03-30T07:36:01;12.50;99.90
6174;DHT22;3120;48.796;9.796;2023-03-30T07:38:28;12.50;99.90
6174;DHT22;3120;48.796;9.796;2023-03-30T07:40:54;13.00;99.90
6174;DHT22;3120;48.796;9.796;2023-03-30T07:43:19;12.50;99.90
6174;DHT22;3120;48.796;9.796;2023-03-30T07:45:46;12.40;99.90
6174;DHT22;3120;48.796;9.796;2023-03-30T07:48:12;12.40;99.90
6174;DHT22;3120;48.796;9.796;2023-03-30T07:50:37;12.30;99.90
6174;DHT22;3120;48.796;9.796;2023-03-30T07:53:04;12.20;99.90
6174;DHT22;3120;48.796;9.796;2023-03-30T07:55:30;12.70;99.90
6174;DHT22;3120;48.796;9.796;2023-03-30T07:57:57;12.30;99.90
6174;DHT22;3120;48.796;9.796;2023-03-30T08:00:23;12.30;99.90
6174;DHT22;3120;48.796;9.796;2023-03-30T08:02:49;12.40;99.90
6174;DHT22;3120;48.796;9.796;2023-03-30T08:05:20;12.40;99.90
6174;DHT22;3120;48.796;9.796;2023-03-30T08:07:46;12.40;99.90
6174;DHT22;3120;48.796;9.796;2023-03-30T08:10:12;13.20;99.90
6174;DHT22;3120;48.796;9.796;2023-03-30T08:15:39;12.30;99.90
6174;DHT22;3120;48.796;9.796;2023-03-30T08:18:06;12.60;99.90
6174;DHT22;3120;48.796;9.796;2023-03-30T08:20:36;12.50;99.90
6174;DHT22;3120;48.796;9.796;2023-03-30T08:23:03;12.60;99.90
6174;DHT22;3120;48.796;9.796;2023-03-30T08:25:29;13.10;99.90
6174;DHT22;3120;48.796;9.796;2023-03-30T08:27:55;12.70;99.90
6174;DHT22;3120;48.796;9.796;2023-03-30T08:30:21;12.70;99.90
6174;DHT22;3120;48.796;9.796;2023-03-30T08:32:47;12.80;99.90
6174;DHT22;3120;48.796;9.796;2023-03-30T08:35:12;12.80;99.90
6174;DHT22;3120;48.796;9.796;2023-03-30T08:37:39;12.70;99.90
6174;DHT22;3120;48.796;9.796;2023-03-30T08:40:06;12.80;99.90
6174;DHT22;3120;48.796;9.796;2023-03-30T08:45:39;13.10;99.90
6174;DHT22;3120;48.796;9.796;2023-03-30T08:48:26;12.70;99.90
6174;DHT22;3120;48.796;9.796;2023-03-30T08:54:13;12.80;99.90
6174;DHT22;3120;48.796;9.796;2023-03-30T08:56:44;12.80;99.90
6174;DHT22;3120;48.796;9.796;2023-03-30T09:02:22;12.50;99.90
6174;DHT22;3120;48.796;9.796;2023-03-30T09:08:15;12.30;99.90
6174;DHT22;3120;48.796;9.796;2023-03-30T09:10:14;12.30;99.90
6174;DHT22;3120;48.796;9.796;2023-03-30T09:12:58;12.20;99.90
6174;DHT22;3120;48.796;9.796;2023-03-30T09:15:27;12.20;99.90
6174;DHT22;3120;48.796;9.796;2023-03-30T09:18:16;12.20;99.90
6174;DHT22;3120;48.796;9.796;2023-03-30T09:20:45;12.20;99.90
6174;DHT22;3120;48.796;9.796;2023-03-30T09:23:14;12.20;99.90
6174;DHT22;3120;48.796;9.796;2023-03-30T09:29:04;12.30;99.90
6174;DHT22;3120;48.796;9.796;2023-03-30T09:31:50;12.30;99.90
6174;DHT22;3120;48.796;9.796;2023-03-30T09:34:43;12.30;99.90
6174;DHT22;3120;48.796;9.796;2023-03-30T09:41:05;12.20;99.90
6174;DHT22;3120;48.796;9.796;2023-03-30T09:43:40;12.10;99.90
6174;DHT22;3120;48.796;9.796;2023-03-30T09:46:09;12.00;99.90
6174;DHT22;3120;48.796;9.796;2023-03-30T09:48:40;12.00;99.90
6174;DHT22;3120;48.796;9.796;2023-03-30T09:51:24;12.00;99.90
6174;DHT22;3120;48.796;9.796;2023-03-30T09:54:01;11.90;99.90
6174;DHT22;3120;48.796;9.796;2023-03-30T09:56:28;12.90;99.90
6174;DHT22;3120;48.796;9.796;2023-03-30T09:59:20;11.90;99.90
6174;DHT22;3120;48.796;9.796;2023-03-30T10:01:47;12.00;99.90
6174;DHT22;3120;48.796;9.796;2023-03-30T10:04:12;12.20;99.90
6174;DHT22;3120;48.796;9.796;2023-03-30T10:06:48;12.40;99.90
6174;DHT22;3120;48.796;9.796;2023-03-30T10:09:16;12.70;99.90
6174;DHT22;3120;48.796;9.796;2023-03-30T10:11:49;12.40;99.90
6174;DHT22;3120;48.796;9.796;2023-03-30T10:14:31;12.50;99.90
6174;DHT22;3120;48.796;9.796;2023-03-30T10:16:58;12.50;99.90
6174;DHT22;3120;48.796;9.796;2023-03-30T10:19:25;12.90;99.90
6174;DHT22;3120;48.796;9.796;2023-03-30T10:21:56;12.50;99.90
6174;DHT22;3120;48.796;9.796;2023-03-30T10:24:26;12.50;99.90
6174;DHT22;3120;48.796;9.796;2023-03-30T10:30:17;12.70;99.90
6174;DHT22;3120;48.796;9.796;2023-03-30T10:32:44;12.90;99.90
6174;DHT22;3120;48.796;9.796;2023-03-30T10:35:17;13.00;99.90
6174;DHT22;3120;48.796;9.796;2023-03-30T10:37:45;13.00;99.90
6174;DHT22;3120;48.796;9.796;2023-03-30T10:40:25;13.20;99.90
6174;DHT22;3120;48.796;9.796;2023-03-30T10:42:54;13.30;99.90
6174;DHT22;3120;48.796;9.796;2023-03-30T10:45:35;13.30;99.90
6174;DHT22;3120;48.796;9.796;2023-03-30T10:48:39;13.30;99.90
6174;DHT22;3120;48.796;9.796;2023-03-30T10:51:19;13.20;99.90
6174;DHT22;3120;48.796;9.796;2023-03-30T10:56:47;13.60;99.90
6174;DHT22;3120;48.796;9.796;2023-03-30T11:04:59;13.60;99.90
6174;DHT22;3120;48.796;9.796;2023-03-30T11:07:42;13.50;99.90
6174;DHT22;3120;48.796;9.796;2023-03-30T11:10:24;13.40;99.90
6174;DHT22;3120;48.796;9.796;2023-03-30T11:16:18;13.60;99.90
6174;DHT22;3120;48.796;9.796;2023-03-30T11:19:06;13.60;99.90
6174;DHT22;3120;48.796;9.796;2023-03-30T11:21:58;13.60;99.90
6174;DHT22;3120;48.796;9.796;2023-03-30T11:24:27;13.50;99.90
6174;DHT22;3120;48.796;9.796;2023-03-30T11:27:04;13.40;99.90
6174;DHT22;3120;48.796;9.796;2023-03-30T11:29:55;13.50;99.90
6174;DHT22;3120;48.796;9.796;2023-03-30T11:35:14;13.20;99.90
6174;DHT22;3120;48.796;9.796;2023-03-30T11:40:23;13.00;99.90
6174;DHT22;3120;48.796;9.796;2023-03-30T11:42:51;12.90;99.90
6174;DHT22;3120;48.796;9.796;2023-03-30T11:45:30;13.20;99.90
6174;DHT22;3120;48.796;9.796;2023-03-30T11:54:16;12.90;99.90
6174;DHT22;3120;48.796;9.796;2023-03-30T12:02:50;12.90;99.90
6174;DHT22;3120;48.796;9.796;2023-03-30T12:05:34;13.00;99.90
6174;DHT22;3120;48.796;9.796;2023-03-30T12:11:00;13.10;99.90
6174;DHT22;3120;48.796;9.796;2023-03-30T12:13:26;13.20;99.90
6174;DHT22;3120;48.796;9.796;2023-03-30T12:16:02;13.30;99.90
6174;DHT22;3120;48.796;9.796;2023-03-30T12:18:32;13.40;99.90
6174;DHT22;3120;48.796;9.796;2023-03-30T12:21:26;13.30;99.90
6174;DHT22;3120;48.796;9.796;2023-03-30T12:26:25;13.20;99.90
6174;DHT22;3120;48.796;9.796;2023-03-30T12:29:08;13.10;99.90
6174;DHT22;3120;48.796;9.796;2023-03-30T12:34:40;13.20;99.90
6174;DHT22;3120;48.796;9.796;2023-03-30T12:43:19;13.20;99.90
6174;DHT22;3120;48.796;9.796;2023-03-30T12:46:11;13.40;99.90
6174;DHT22;3120;48.796;9.796;2023-03-30T12:48:57;13.50;99.90
6174;DHT22;3120;48.796;9.796;2023-03-30T12:51:34;13.60;99.90
6174;DHT22;3120;48.796;9.796;2023-03-30T12:54:10;13.80;99.90
6174;DHT22;3120;48.796;9.796;2023-03-30T12:57:24;13.90;99.90
6174;DHT22;3120;48.796;9.796;2023-03-30T13:00:07;14.50;99.90
6174;DHT22;3120;48.796;9.796;2023-03-30T13:05:34;14.40;99.90
6174;DHT22;3120;48.796;9.796;2023-03-30T13:08:08;14.50;99.90
6174;DHT22;3120;48.796;9.796;2023-03-30T13:10:41;14.50;99.90
6174;DHT22;3120;48.796;9.796;2023-03-30T13:13:17;14.90;99.90
6174;DHT22;3120;48.796;9.796;2023-03-30T13:18:24;16.40;99.90
6174;DHT22;3120;48.796;9.796;2023-03-30T13:26:23;15.20;1.00
6174;DHT22;3120;48.796;9.796;2023-03-30T13:37:22;14.90;99.90
6174;DHT22;3120;48.796;9.796;2023-03-30T13:51:27;15.10;1.00
6174;DHT22;3120;48.796;9.796;2023-03-30T13:54:19;15.10;1.00
6174;DHT22;3120;48.796;9.796;2023-03-30T13:56:48;15.40;1.00
6174;DHT22;3120;48.796;9.796;2023-03-30T13:59:22;15.20;1.00
6174;DHT22;3120;48.796;9.796;2023-03-30T14:01:59;16.60;99.90
6174;DHT22;3120;48.796;9.796;2023-03-30T14:04:31;15.40;99.90
6174;DHT22;3120;48.796;9.796;2023-03-30T14:07:04;16.20;1.00
6174;DHT22;3120;48.796;9.796;2023-03-30T14:09:30;16.60;1.00
6174;DHT22;3120;48.796;9.796;2023-03-30T14:12:00;15.50;99.90
6174;DHT22;3120;48.796;9.796;2023-03-30T14:14:33;16.50;99.90
6174;DHT22;3120;48.796;9.796;2023-03-30T14:17:01;15.30;99.90
6174;DHT22;3120;48.796;9.796;2023-03-30T14:22:49;15.10;1.00
6174;DHT22;3120;48.796;9.796;2023-03-30T14:25:26;16.20;99.90
6174;DHT22;3120;48.796;9.796;2023-03-30T14:27:52;15.60;1.00
6174;DHT22;3120;48.796;9.796;2023-03-30T14:30:26;15.50;94.30
6174;DHT22;3120;48.796;9.796;2023-03-30T14:33:13;15.60;1.00
6174;DHT22;3120;48.796;9.796;2023-03-30T14:35:50;15.70;1.00
6174;DHT22;3120;48.796;9.796;2023-03-30T14:38:37;16.20;99.90
6174;DHT22;3120;48.796;9.796;2023-03-30T14:41:20;16.40;99.90
6174;DHT22;3120;48.796;9.796;2023-03-30T14:44:05;15.90;99.90
6174;DHT22;3120;48.796;9.796;2023-03-30T14:46:52;16.30;99.90
6174;DHT22;3120;48.796;9.796;2023-03-30T14:49:46;17.20;99.90
6174;DHT22;3120;48.796;9.796;2023-03-30T14:52:17;16.30;87.90
6174;DHT22;3120;48.796;9.796;2023-03-30T14:54:48;16.70;53.20
6174;DHT22;3120;48.796;9.796;2023-03-30T14:57:39;16.30;43.50
6174;DHT22;3120;48.796;9.796;2023-03-30T15:00:17;17.50;1.00
6174;DHT22;3120;48.796;9.796;2023-03-30T15:02:53;16.20;1.00
6174;DHT22;3120;48.796;9.796;2023-03-30T15:05:22;16.60;1.00
6174;DHT22;3120;48.796;9.796;2023-03-30T15:07:49;15.90;1.00
6174;DHT22;3120;48.796;9.796;2023-03-30T15:13:54;15.60;1.00
6174;DHT22;3120;48.796;9.796;2023-03-30T15:19:52;15.80;1.00
6174;DHT22;3120;48.796;9.796;2023-03-30T15:22:29;15.60;1.00
6174;DHT22;3120;48.796;9.796;2023-03-30T15:25:00;15.50;1.00
6174;DHT22;3120;48.796;9.796;2023-03-30T15:27:26;15.40;1.00
6174;DHT22;3120;48.796;9.796;2023-03-30T15:29:54;15.70;1.00
6174;DHT22;3120;48.796;9.796;2023-03-30T15:32:30;15.50;1.00
6174;DHT22;3120;48.796;9.796;2023-03-30T15:35:20;16.90;1.00
6174;DHT22;3120;48.796;9.796;2023-03-30T15:37:57;15.40;1.00
6174;DHT22;3120;48.796;9.796;2023-03-30T15:40:42;15.40;1.00
6174;DHT22;3120;48.796;9.796;2023-03-30T15:53:32;15.00;83.10
6174;DHT22;3120;48.796;9.796;2023-03-30T15:56:03;15.20;99.90
6174;DHT22;3120;48.796;9.796;2023-03-30T15:58:28;14.20;99.90
6174;DHT22;3120;48.796;9.796;2023-03-30T16:00:56;15.40;99.90
6174;DHT22;3120;48.796;9.796;2023-03-30T16:03:38;15.00;99.90
6174;DHT22;3120;48.796;9.796;2023-03-30T16:06:09;15.50;79.00
6174;DHT22;3120;48.796;9.796;2023-03-30T16:08:37;16.20;1.00
6174;DHT22;3120;48.796;9.796;2023-03-30T16:11:07;14.90;76.00
6174;DHT22;3120;48.796;9.796;2023-03-30T16:13:37;14.90;1.00
6174;DHT22;3120;48.796;9.796;2023-03-30T16:16:03;14.60;1.00
6174;DHT22;3120;48.796;9.796;2023-03-30T16:18:29;14.50;36.50
6174;DHT22;3120;48.796;9.796;2023-03-30T16:20:55;14.50;7.20
6174;DHT22;3120;48.796;9.796;2023-03-30T16:23:21;16.00;1.00
6174;DHT22;3120;48.796;9.796;2023-03-30T16:25:46;14.40;1.00
6174;DHT22;3120;48.796;9.796;2023-03-30T16:28:14;14.70;99.90
6174;DHT22;3120;48.796;9.796;2023-03-30T16:34:05;13.20;1.00
6174;DHT22;3120;48.796;9.796;2023-03-30T16:46:42;12.60;32.90
6174;DHT22;3120;48.796;9.796;2023-03-30T16:49:19;13.50;34.30
6174;DHT22;3120;48.796;9.796;2023-03-30T16:51:53;12.50;92.10
6174;DHT22;3120;48.796;9.796;2023-03-30T16:54:20;12.60;99.60
6174;DHT22;3120;48.796;9.796;2023-03-30T16:56:45;13.80;99.90
6174;DHT22;3120;48.796;9.796;2023-03-30T16:59:32;12.40;99.90
6174;DHT22;3120;48.796;9.796;2023-03-30T17:01:58;12.80;98.20
6174;DHT22;3120;48.796;9.796;2023-03-30T17:04:24;12.30;99.90
6174;DHT22;3120;48.796;9.796;2023-03-30T17:06:51;12.30;99.90
6174;DHT22;3120;48.796;9.796;2023-03-30T17:09:19;12.30;67.10
6174;DHT22;3120;48.796;9.796;2023-03-30T17:11:46;13.00;7.80
6174;DHT22;3120;48.796;9.796;2023-03-30T17:14:12;12.30;1.00
6174;DHT22;3120;48.796;9.796;2023-03-30T17:16:39;12.40;99.90
6174;DHT22;3120;48.796;9.796;2023-03-30T17:19:12;12.60;23.90
6174;DHT22;3120;48.796;9.796;2023-03-30T17:21:38;12.70;1.00
6174;DHT22;3120;48.796;9.796;2023-03-30T17:27:29;13.00;99.90
6174;DHT22;3120;48.796;9.796;2023-03-30T17:29:56;13.40;1.00
6174;DHT22;3120;48.796;9.796;2023-03-30T17:32:22;13.10;99.90
6174;DHT22;3120;48.796;9.796;2023-03-30T17:34:47;13.00;99.90
6174;DHT22;3120;48.796;9.796;2023-03-30T17:37:13;12.90;99.90
6174;DHT22;3120;48.796;9.796;2023-03-30T17:39:38;12.90;99.90
6174;DHT22;3120;48.796;9.796;2023-03-30T17:42:04;13.90;99.90
6174;DHT22;3120;48.796;9.796;2023-03-30T17:44:30;13.60;62.20
6174;DHT22;3120;48.796;9.796;2023-03-30T17:46:56;12.80;99.90
6174;DHT22;3120;48.796;9.796;2023-03-30T17:49:22;13.00;99.90
6174;DHT22;3120;48.796;9.796;2023-03-30T17:51:48;12.70;88.70
6174;DHT22;3120;48.796;9.796;2023-03-30T17:54:14;12.70;99.90
6174;DHT22;3120;48.796;9.796;2023-03-30T17:56:39;12.70;99.90
6174;DHT22;3120;48.796;9.796;2023-03-30T17:59:09;12.80;99.90
6174;DHT22;3120;48.796;9.796;2023-03-30T18:01:35;12.70;99.90
6174;DHT22;3120;48.796;9.796;2023-03-30T18:04:19;13.60;99.90
6174;DHT22;3120;48.796;9.796;2023-03-30T18:06:45;13.60;1.00
6174;DHT22;3120;48.796;9.796;2023-03-30T18:09:14;12.70;99.90
6174;DHT22;3120;48.796;9.796;2023-03-30T18:11:40;13.10;1.00
6174;DHT22;3120;48.796;9.796;2023-03-30T18:14:07;13.00;99.90
6174;DHT22;3120;48.796;9.796;2023-03-30T18:16:36;13.20;99.90
6174;DHT22;3120;48.796;9.796;2023-03-30T18:19:03;12.70;1.00
6174;DHT22;3120;48.796;9.796;2023-03-30T18:21:29;12.60;99.90
6174;DHT22;3120;48.796;9.796;2023-03-30T18:23:54;12.50;1.00
6174;DHT22;3120;48.796;9.796;2023-03-30T18:26:21;12.30;1.00
6174;DHT22;3120;48.796;9.796;2023-03-30T18:28:46;13.70;1.00
6174;DHT22;3120;48.796;9.796;2023-03-30T18:31:12;12.10;1.00
6174;DHT22;3120;48.796;9.796;2023-03-30T18:33:38;12.50;99.90
6174;DHT22;3120;48.796;9.796;2023-03-30T18:36:04;11.80;99.90
6174;DHT22;3120;48.796;9.796;2023-03-30T18:38:32;11.80;99.90
6174;DHT22;3120;48.796;9.796;2023-03-30T18:40:57;11.70;1.00
6174;DHT22;3120;48.796;9.796;2023-03-30T18:43:24;13.90;99.90
6174;DHT22;3120;48.796;9.796;2023-03-30T18:45:50;13.60;99.90
6174;DHT22;3120;48.796;9.796;2023-03-30T18:48:18;11.50;99.90
6174;DHT22;3120;48.796;9.796;2023-03-30T18:50:50;12.40;99.90
6174;DHT22;3120;48.796;9.796;2023-03-30T18:53:19;11.20;1.00
6174;DHT22;3120;48.796;9.796;2023-03-30T18:55:47;11.00;1.00
6174;DHT22;3120;48.796;9.796;2023-03-30T19:00:41;13.10;1.00
6174;DHT22;3120;48.796;9.796;2023-03-30T19:06:27;10.60;87.80
6174;DHT22;3120;48.796;9.796;2023-03-30T19:08:53;10.50;95.80
6174;DHT22;3120;48.796;9.796;2023-03-30T19:11:24;10.40;99.90
6174;DHT22;3120;48.796;9.796;2023-03-30T19:13:50;10.30;96.90
6174;DHT22;3120;48.796;9.796;2023-03-30T19:16:16;10.20;99.90
6174;DHT22;3120;48.796;9.796;2023-03-30T19:18:43;10.10;99.90
6174;DHT22;3120;48.796;9.796;2023-03-30T19:21:15;10.00;99.90
6174;DHT22;3120;48.796;9.796;2023-03-30T19:23:41;11.70;99.90
6174;DHT22;3120;48.796;9.796;2023-03-30T19:26:07;9.80;99.90
6174;DHT22;3120;48.796;9.796;2023-03-30T19:28:33;9.70;99.90
6174;DHT22;3120;48.796;9.796;2023-03-30T19:31:07;12.00;99.90
6174;DHT22;3120;48.796;9.796;2023-03-30T19:33:38;9.50;99.90
6174;DHT22;3120;48.796;9.796;2023-03-30T19:36:08;9.40;99.90
6174;DHT22;3120;48.796;9.796;2023-03-30T19:38:34;9.40;99.90
6174;DHT22;3120;48.796;9.796;2023-03-30T19:41:01;9.30;99.90
6174;DHT22;3120;48.796;9.796;2023-03-30T19:43:27;9.20;99.90
6174;DHT22;3120;48.796;9.796;2023-03-30T19:45:53;9.10;99.90
6174;DHT22;3120;48.796;9.796;2023-03-30T19:48:19;9.10;99.90
6174;DHT22;3120;48.796;9.796;2023-03-30T19:50:49;9.10;99.90
6174;DHT22;3120;48.796;9.796;2023-03-30T19:53:15;9.00;99.90
6174;DHT22;3120;48.796;9.796;2023-03-30T19:55:41;9.50;99.90